createdAt,value
2023-02-24T00:04:56.221Z,1.23
2023-02-24T00:10:01.522Z,1.33
2023-02-24T00:15:05.781Z,1.13
2023-02-24T00:20:10.559Z,1.60
2023-02-24T00:25:15.908Z,1.40
2023-02-24T00:30:19.889Z,1.25
2023-02-24T00:35:23.498Z,1.10
2023-02-24T00:40:29.472Z,1.30
2023-02-24T00:45:36.068Z,1.13
2023-02-24T00:50:40.334Z,1.25
2023-02-24T00:55:45.723Z,1.35
2023-02-24T01:00:49.353Z,1.52
2023-02-24T01:05:53.359Z,1.40
2023-02-24T01:11:00.460Z,1.10
2023-02-24T01:16:04.191Z,1.15
2023-02-24T01:21:08.040Z,0.93
2023-02-24T01:26:13.507Z,1.75
2023-02-24T01:31:18.113Z,1.37
2023-02-24T01:36:25.338Z,1.80
2023-02-24T01:41:30.669Z,1.40
2023-02-24T01:46:35.761Z,1.60
2023-02-24T01:51:44.901Z,1.55
2023-02-24T01:56:51.912Z,1.38
2023-02-24T02:02:01.866Z,1.58
2023-02-24T02:07:06.492Z,1.50
2023-02-24T02:12:12.319Z,1.60
2023-02-24T02:17:21.429Z,1.27
2023-02-24T02:22:55.818Z,1.38
2023-02-24T02:28:26.656Z,1.63
2023-02-24T02:33:54.378Z,1.70
2023-02-24T02:39:06.993Z,1.98
2023-02-24T02:44:15.237Z,2.00
2023-02-24T02:49:25.678Z,2.65
2023-02-24T02:54:34.297Z,2.03
2023-02-24T02:59:43.686Z,1.98
2023-02-24T03:04:52.427Z,2.05
2023-02-24T03:10:00.892Z,1.98
2023-02-24T03:15:08.778Z,1.63
2023-02-24T03:20:20.795Z,2.00
2023-02-24T03:25:28.487Z,1.10
2023-02-24T03:30:40.264Z,1.55
2023-02-24T03:35:46.740Z,1.42
2023-02-24T03:45:53.670Z,1.85
2023-02-24T03:51:00.001Z,1.83
2023-02-24T03:56:16.798Z,2.10
2023-02-24T04:01:27.699Z,2.30
2023-02-24T04:06:43.463Z,1.77
2023-02-24T04:11:54.655Z,1.53
2023-02-24T04:17:03.438Z,2.78
2023-02-24T04:22:16.226Z,2.15
2023-02-24T04:27:20.796Z,2.03
2023-02-24T04:32:28.782Z,1.88
2023-02-24T04:37:34.381Z,2.03
2023-02-24T04:42:38.076Z,2.43
2023-02-24T04:47:41.692Z,2.95
2023-02-24T04:52:48.896Z,2.58
2023-02-24T04:57:54.422Z,2.88
2023-02-24T05:02:58.469Z,2.50
2023-02-24T05:08:05.924Z,2.63
2023-02-24T05:13:10.009Z,2.90
2023-02-24T05:18:15.431Z,2.30
2023-02-24T05:23:20.948Z,2.20
2023-02-24T05:28:24.776Z,2.22
2023-02-24T05:33:28.380Z,1.63
2023-02-24T05:38:33.947Z,0.90
2023-02-24T05:43:37.590Z,1.20
2023-02-24T05:48:41.201Z,1.90
2023-02-24T05:53:46.472Z,2.10
2023-02-24T05:58:50.413Z,2.28
2023-02-24T06:03:58.966Z,2.47
2023-02-24T06:09:05.016Z,2.20
2023-02-24T06:14:09.713Z,0.68
2023-02-24T06:19:13.877Z,0.68
2023-02-24T06:24:19.178Z,1.00
2023-02-24T06:29:22.789Z,0.95
2023-02-24T06:34:26.984Z,1.15
2023-02-24T06:39:34.391Z,1.20
2023-02-24T06:44:41.324Z,0.80
2023-02-24T06:49:45.057Z,0.55
2023-02-24T06:54:51.036Z,1.15
2023-02-24T06:59:54.622Z,1.20
2023-02-24T07:04:58.234Z,1.45
2023-02-24T07:10:03.533Z,0.68
2023-02-24T07:15:08.583Z,0.80
2023-02-24T07:20:13.499Z,0.30
2023-02-24T07:25:19.243Z,0.30
2023-02-24T07:30:22.893Z,0.60
2023-02-24T07:35:26.616Z,0.80
2023-02-24T07:40:33.028Z,0.50
2023-02-24T07:50:41.631Z,0.43
2023-02-24T07:55:46.923Z,1.00
2023-02-24T08:00:50.736Z,1.15
2023-02-24T08:05:57.295Z,1.50
2023-02-24T08:11:02.672Z,1.55
2023-02-24T08:16:07.613Z,0.82
2023-02-24T08:21:11.340Z,0.80
2023-02-24T08:26:16.653Z,1.48
2023-02-24T08:31:20.646Z,1.50
2023-02-24T08:36:24.629Z,1.30
2023-02-24T08:41:29.934Z,1.00
2023-02-24T08:46:33.622Z,1.05
2023-02-24T08:51:38.305Z,1.60
2023-02-24T08:56:44.371Z,1.50
2023-02-24T09:01:53.354Z,1.10
2023-02-24T09:07:11.768Z,1.60
2023-02-24T09:12:17.655Z,1.77
2023-02-24T09:17:21.283Z,1.10
2023-02-24T09:22:26.025Z,1.92
2023-02-24T09:27:31.302Z,1.88
2023-02-24T09:32:35.149Z,1.65
2023-02-24T09:37:38.897Z,1.58
2023-02-24T09:42:44.254Z,1.48
2023-02-24T09:47:49.449Z,1.70
2023-02-24T09:53:00.080Z,1.35
2023-02-24T09:58:18.228Z,1.00
2023-02-24T10:03:26.244Z,1.20
2023-02-24T10:08:36.398Z,1.67
2023-02-24T10:13:48.386Z,1.17
2023-02-24T10:18:54.921Z,1.50
2023-02-24T10:29:19.298Z,1.40
2023-02-24T10:34:24.078Z,1.10
2023-02-24T10:39:28.201Z,0.90
2023-02-24T10:44:33.517Z,0.65
2023-02-24T10:49:42.122Z,0.52
2023-02-24T10:54:46.605Z,0.65
2023-02-24T10:59:54.981Z,1.20
2023-02-24T11:05:02.540Z,0.60
2023-02-24T11:10:12.280Z,0.50
2023-02-24T11:15:22.801Z,0.40
2023-02-24T11:20:46.492Z,0.65
2023-02-24T11:25:55.016Z,0.73
2023-02-24T11:31:11.512Z,0.95
2023-02-24T11:36:23.336Z,1.20
2023-02-24T11:41:31.231Z,1.10
2023-02-24T11:46:43.440Z,1.20
2023-02-24T11:51:47.324Z,0.77
2023-02-24T11:56:55.379Z,1.08
2023-02-24T12:02:06.935Z,1.00
2023-02-24T12:07:19.820Z,0.52
2023-02-24T12:12:27.394Z,0.98
2023-02-24T12:17:37.544Z,0.40
2023-02-24T12:22:47.773Z,0.40
2023-02-24T12:28:03.345Z,0.40
2023-02-24T12:33:31.135Z,0.47
2023-02-24T12:38:45.792Z,0.50
2023-02-24T12:43:56.147Z,0.45
2023-02-24T12:49:33.476Z,0.30
2023-02-24T12:54:44.749Z,0.20
2023-02-24T12:59:49.697Z,0.30
2023-02-24T13:05:05.189Z,0.20
2023-02-24T13:10:19.642Z,0.32
2023-02-24T13:15:24.995Z,0.20
2023-02-24T13:20:33.276Z,0.57
2023-02-24T13:25:38.275Z,0.30
2023-02-24T13:30:44.932Z,0.13
2023-02-24T13:35:51.067Z,0.40
2023-02-24T13:40:55.064Z,0.30
2023-02-24T13:46:01.252Z,0.43
2023-02-24T13:51:30.914Z,0.40
2023-02-24T13:56:43.705Z,0.60
2023-02-24T14:01:50.495Z,0.32
2023-02-24T14:06:59.204Z,0.57
2023-02-24T14:12:06.301Z,0.77
2023-02-24T14:17:21.672Z,0.80
2023-02-24T14:22:26.970Z,0.82
2023-02-24T14:27:31.012Z,1.10
2023-02-24T14:32:35.669Z,0.80
2023-02-24T14:37:41.038Z,0.80
2023-02-24T14:42:49.192Z,0.90
2023-02-24T14:47:52.931Z,0.70
2023-02-24T14:53:02.932Z,0.90
2023-02-24T14:58:13.133Z,0.40
2023-02-24T15:03:19.832Z,0.50
2023-02-24T15:08:34.729Z,0.52
2023-02-24T15:13:41.749Z,0.40
2023-02-24T15:18:50.181Z,0.20
2023-02-24T15:24:02.965Z,0.30
2023-02-24T15:29:15.557Z,0.20
2023-02-24T15:34:21.561Z,0.22
2023-02-24T15:39:29.801Z,0.30
2023-02-24T15:44:35.827Z,0.10
2023-02-24T15:49:39.430Z,0.30
2023-02-24T15:54:44.747Z,0.10
2023-02-24T15:59:48.849Z,0.10
2023-02-24T16:04:53.008Z,0.20
2023-02-24T16:09:59.901Z,0.52
2023-02-24T16:15:06.548Z,0.20
2023-02-24T16:20:14.723Z,0.20
2023-02-24T16:25:20.964Z,0.30
2023-02-24T16:30:26.801Z,0.10
2023-02-24T16:35:30.521Z,0.30
2023-02-24T16:40:36.985Z,0.20
2023-02-24T16:50:45.401Z,0.45
2023-02-24T16:55:51.416Z,0.20
2023-02-24T17:00:57.756Z,0.13
2023-02-24T17:06:01.415Z,0.20
2023-02-24T17:11:06.988Z,0.30
2023-02-24T17:16:10.881Z,0.50
2023-02-24T17:21:16.058Z,0.30
2023-02-24T17:26:21.628Z,0.50
2023-02-24T17:31:25.535Z,0.50
2023-02-24T17:36:30.076Z,0.47
2023-02-24T17:41:35.416Z,0.70
2023-02-24T17:46:39.939Z,0.47
2023-02-24T17:51:43.733Z,0.82
2023-02-24T17:56:49.015Z,0.65
2023-02-24T18:01:52.772Z,0.55
2023-02-24T18:06:56.516Z,0.40
2023-02-24T18:12:02.073Z,0.60
2023-02-24T18:17:05.685Z,0.60
2023-02-24T18:22:09.789Z,0.30
2023-02-24T18:27:15.146Z,0.50
2023-02-24T18:32:19.219Z,0.30
2023-02-24T18:37:23.184Z,0.30
2023-02-24T18:42:28.480Z,0.30
2023-02-24T18:47:32.160Z,0.68
2023-02-24T18:52:36.000Z,0.30
2023-02-24T18:57:42.282Z,0.30
2023-02-24T19:02:46.251Z,0.52
2023-02-24T19:07:49.986Z,0.50
2023-02-24T19:12:55.342Z,0.50
2023-02-24T19:17:59.068Z,0.60
2023-02-24T19:23:02.834Z,0.57
2023-02-24T19:28:08.164Z,0.70
2023-02-24T19:33:11.962Z,0.57
2023-02-24T19:38:16.575Z,0.50
2023-02-24T19:43:21.940Z,0.50
2023-02-24T19:48:25.632Z,0.57
2023-02-24T19:53:29.834Z,0.38
2023-02-24T19:58:35.457Z,0.30
2023-02-24T20:03:40.052Z,0.60
2023-02-24T20:08:43.772Z,0.57
2023-02-24T20:13:51.672Z,0.55
2023-02-24T20:18:56.098Z,0.40
2023-02-24T20:24:00.775Z,0.30
2023-02-24T20:29:06.142Z,0.20
2023-02-24T20:34:10.410Z,0.20
2023-02-24T20:39:14.194Z,0.17
2023-02-24T20:44:19.503Z,0.32
2023-02-24T20:49:23.327Z,0.30
2023-02-24T20:54:27.036Z,0.40
2023-02-24T20:59:32.293Z,0.20
2023-02-24T21:04:36.028Z,0.10
2023-02-24T21:09:39.759Z,0.40
2023-02-24T21:14:45.365Z,0.17
2023-02-24T21:19:49.046Z,0.10
2023-02-24T21:24:52.657Z,0.10
2023-02-24T21:29:57.942Z,0.45
2023-02-24T21:35:01.720Z,0.20
2023-02-24T21:40:06.482Z,0.10
2023-02-24T21:45:12.475Z,0.43
2023-02-24T21:50:16.430Z,0.35
2023-02-24T21:55:20.210Z,0.15
2023-02-24T22:00:25.697Z,0.20
2023-02-24T22:05:29.328Z,0.20
2023-02-24T22:10:32.949Z,0.10
2023-02-24T22:15:39.694Z,0.20
2023-02-24T22:20:43.385Z,0.10
2023-02-24T22:25:47.065Z,0.20
2023-02-24T22:30:58.032Z,0.17
2023-02-24T22:36:04.083Z,0.10
2023-02-24T22:41:12.027Z,0.10
2023-02-24T22:46:19.854Z,0.30
2023-02-24T22:51:24.348Z,0.10
2023-02-24T22:56:29.292Z,0.20
2023-02-24T23:01:37.045Z,0.10
2023-02-24T23:06:40.733Z,0.15
2023-02-24T23:11:44.555Z,0.10
2023-02-24T23:16:53.646Z,0.10
2023-02-24T23:21:57.358Z,0.20
2023-02-24T23:27:01.645Z,0.20
2023-02-24T23:32:07.113Z,0.30
2023-02-24T23:37:10.902Z,0.10
2023-02-24T23:42:14.499Z,0.40
2023-02-24T23:47:19.781Z,0.10
2023-02-24T23:52:23.485Z,0.10
2023-02-24T23:57:29.205Z,0.45
